Huambo, Albano Machado Airport (FNHU)

NameAlbano Machado Airport
CityHuambo
CountryAngola
ICAOFNHU
IATANOV
Altitude1703 m
CoordinatesGoogle Map
Live Air TrafficLiveATC.net
METARFNHU 271300Z 23007KT 9999 SCT014 SCT090 25/18 Q1018
2020-02-27 13:00:00 Wind: Southwest (230°) 3.6 m/s - Visibility: > 10000 m - Temperature: 25 °C - Dew point: 18 °C - Humidity: 65.2% - Pressure: 1018 hPa

Sorry, no flights used the airport in this database.